Time;durP1;ratioP1;P1;durP2;ratioP2;P2;SDS_P1;SDS_P2;PMS_P1;PMS_P2;Temp;Humidity;BMP_temperature;BMP_pressure;BME280_temperature;BME280_humidity;BME280_pressure;Samples;Min_cycle;Max_cycle;Signal;HPM_P1;HPM_P2
2022/12/13 00:01:22;;;;;;;19.30;13.17;;;;;;;;;;5034395;28;20508;-81
2022/12/13 00:03:48;;;;;;;11.33;9.17;;;;;;;;;;5016212;28;20430;-80
2022/12/13 00:06:14;;;;;;;18.37;9.70;;;;;;;;;;5034306;28;20417;-80
2022/12/13 00:08:40;;;;;;;12.67;8.40;;;;;;;;;;5034180;28;20418;-79
2022/12/13 00:11:07;;;;;;;16.47;10.60;;;;;;;;;;5034263;28;20405;-80
2022/12/13 00:13:33;;;;;;;29.47;12.87;;;;;;;;;;5034116;28;20777;-79
2022/12/13 00:16:01;;;;;;;20.27;11.63;;;;;;;;;;5034030;28;20406;-80
2022/12/13 00:18:27;;;;;;;19.73;14.20;;;;;;;;;;5033789;28;20441;-80
2022/12/13 00:20:53;;;;;;;20.37;12.13;;;;;;;;;;5034110;28;20451;-79
2022/12/13 00:23:19;;;;;;;14.43;10.90;;;;;;;;;;5033996;28;20477;-79
2022/12/13 00:25:45;;;;;;;14.17;11.67;;;;;;;;;;5034133;28;20440;-87
2022/12/13 00:28:11;;;;;;;14.23;9.53;;;;;;;;;;5016518;28;20422;-82
2022/12/13 00:30:38;;;;;;;13.30;11.17;;;;;;;;;;5016063;28;20467;-82
2022/12/13 00:33:05;;;;;;;16.50;9.83;;;;;;;;;;5033582;28;20417;-82
2022/12/13 00:35:31;;;;;;;15.50;9.13;;;;;;;;;;5016113;28;20421;-82
2022/12/13 00:37:57;;;;;;;14.27;10.50;;;;;;;;;;5033714;28;20935;-82
2022/12/13 00:40:23;;;;;;;10.27;8.43;;;;;;;;;;5032863;28;20406;-83
2022/12/13 00:42:49;;;;;;;13.10;8.97;;;;;;;;;;5015987;28;20430;-82
2022/12/13 00:45:15;;;;;;;13.20;9.20;;;;;;;;;;5033754;28;20429;-82
2022/12/13 00:47:41;;;;;;;18.37;10.00;;;;;;;;;;5015865;28;20917;-82
2022/12/13 00:50:07;;;;;;;19.40;10.90;;;;;;;;;;5015567;28;20812;-82
2022/12/13 00:52:38;;;;;;;17.87;10.47;;;;;;;;;;5015773;28;20942;-82
2022/12/13 00:55:05;;;;;;;13.60;8.50;;;;;;;;;;5015705;28;20449;-82
2022/12/13 00:57:34;;;;;;;10.50;9.00;;;;;;;;;;5037307;28;20541;-83
2022/12/13 01:00:00;;;;;;;20.00;11.93;;;;;;;;;;5035495;28;20424;-82
2022/12/13 01:02:27;;;;;;;12.03;10.00;;;;;;;;;;5035403;28;20816;-82
2022/12/13 01:04:53;;;;;;;6.83;6.10;;;;;;;;;;5034977;28;20515;-83
2022/12/13 01:07:19;;;;;;;14.33;12.07;;;;;;;;;;5035339;28;20550;-82
2022/12/13 01:09:45;;;;;;;9.27;6.87;;;;;;;;;;5035366;28;20475;-82
2022/12/13 01:12:11;;;;;;;13.57;10.80;;;;;;;;;;5035229;28;20409;-83
2022/12/13 01:14:38;;;;;;;12.53;10.33;;;;;;;;;;5035276;28;20409;-83
2022/12/13 01:17:05;;;;;;;18.33;8.90;;;;;;;;;;5035025;28;20509;-83
2022/12/13 01:19:31;;;;;;;22.00;9.77;;;;;;;;;;5034733;28;20450;-83
2022/12/13 01:21:59;;;;;;;15.87;10.87;;;;;;;;;;5035209;28;20463;-84
2022/12/13 01:24:28;;;;;;;10.83;9.67;;;;;;;;;;5035067;28;20422;-84
2022/12/13 01:26:54;;;;;;;20.70;9.83;;;;;;;;;;5038977;28;20417;-84
2022/12/13 01:29:21;;;;;;;13.03;9.90;;;;;;;;;;5035875;28;20432;-83
2022/12/13 01:31:49;;;;;;;22.03;12.90;;;;;;;;;;5052762;28;20465;-83
2022/12/13 01:34:17;;;;;;;19.70;12.60;;;;;;;;;;5033985;28;20418;-84
2022/12/13 01:36:44;;;;;;;18.27;11.30;;;;;;;;;;5034849;28;20968;-83
2022/12/13 01:39:12;;;;;;;10.63;9.57;;;;;;;;;;5018662;28;20434;-84
2022/12/13 01:41:38;;;;;;;10.87;8.80;;;;;;;;;;5034876;28;20417;-83
2022/12/13 01:44:05;;;;;;;19.20;8.47;;;;;;;;;;5035051;28;20420;-83
2022/12/13 01:46:32;;;;;;;22.77;11.90;;;;;;;;;;5034866;28;20468;-84
2022/12/13 01:49:01;;;;;;;20.97;15.67;;;;;;;;;;5034606;28;20418;-83
2022/12/13 01:51:34;;;;;;;23.10;10.87;;;;;;;;;;5054325;28;20417;-83
2022/12/13 01:54:01;;;;;;;18.47;12.80;;;;;;;;;;5038848;28;20405;-84
2022/12/13 01:56:33;;;;;;;18.13;13.07;;;;;;;;;;5056578;28;20503;-84
2022/12/13 01:58:59;;;;;;;14.70;8.27;;;;;;;;;;5038538;28;20442;-83
2022/12/13 02:01:25;;;;;;;10.57;8.70;;;;;;;;;;5038689;28;20416;-84
2022/12/13 02:03:51;;;;;;;18.47;14.43;;;;;;;;;;5037685;28;20420;-82
2022/12/13 02:06:40;;;;;;;18.07;13.53;;;;;;;;;;5038748;28;20412;-83
2022/12/13 02:09:07;;;;;;;10.47;8.30;;;;;;;;;;5036862;28;20413;-83
2022/12/13 02:11:43;;;;;;;12.77;8.80;;;;;;;;;;5036413;28;20433;-82
2022/12/13 02:14:10;;;;;;;20.83;11.63;;;;;;;;;;5018782;28;20432;-83
2022/12/13 02:16:56;;;;;;;10.90;8.57;;;;;;;;;;5018560;28;20461;-82
2022/12/13 02:19:31;;;;;;;12.83;9.90;;;;;;;;;;5018256;28;20933;-82
2022/12/13 02:22:10;;;;;;;13.57;10.97;;;;;;;;;;5018626;28;20421;-83
2022/12/13 02:24:54;;;;;;;11.70;8.20;;;;;;;;;;5018527;28;20465;-82
2022/12/13 02:27:24;;;;;;;13.50;8.40;;;;;;;;;;5018525;28;20426;-82
2022/12/13 02:30:00;;;;;;;13.77;7.13;;;;;;;;;;5018233;28;20398;-83
2022/12/13 02:32:51;;;;;;;17.90;10.30;;;;;;;;;;5036398;28;20922;-82
2022/12/13 02:35:23;;;;;;;19.43;10.40;;;;;;;;;;5018395;28;20941;-83
2022/12/13 02:38:15;;;;;;;15.63;13.37;;;;;;;;;;5036034;28;20475;-82
2022/12/13 02:40:45;;;;;;;10.80;7.93;;;;;;;;;;5033955;28;20422;-83
2022/12/13 02:43:23;;;;;;;18.03;8.30;;;;;;;;;;5036028;28;20410;-82
2022/12/13 02:45:51;;;;;;;9.93;8.93;;;;;;;;;;5018171;28;20465;-82
2022/12/13 02:48:21;;;;;;;17.93;10.23;;;;;;;;;;5035499;28;20414;-83
2022/12/13 02:50:47;;;;;;;25.00;13.17;;;;;;;;;;5018088;28;20417;-82
2022/12/13 02:53:15;;;;;;;15.53;10.40;;;;;;;;;;5001833;28;20499;-83
2022/12/13 02:55:41;;;;;;;11.50;8.63;;;;;;;;;;5023125;28;20776;-83
2022/12/13 02:58:07;;;;;;;15.80;9.23;;;;;;;;;;5018113;28;20482;-83
2022/12/13 03:00:51;;;;;;;9.33;7.33;;;;;;;;;;5017863;28;20425;-82
2022/12/13 03:03:30;;;;;;;13.60;10.03;;;;;;;;;;5034154;28;20420;-82
2022/12/13 03:08:55;;;;;;;16.80;9.83;;;;;;;;;;5035832;28;20402;-82
2022/12/13 03:11:23;;;;;;;19.37;10.83;;;;;;;;;;5017616;28;20422;-82
2022/12/13 03:13:58;;;;;;;11.60;7.50;;;;;;;;;;5017574;28;20419;-83
2022/12/13 03:16:46;;;;;;;16.67;9.97;;;;;;;;;;5017353;28;20483;-83
2022/12/13 03:19:13;;;;;;;18.60;11.30;;;;;;;;;;5034456;28;20473;-84
2022/12/13 03:21:40;;;;;;;10.00;9.10;;;;;;;;;;5017446;28;20422;-83
2022/12/13 03:24:06;;;;;;;17.23;7.07;;;;;;;;;;5035179;28;20757;-83
2022/12/13 03:26:37;;;;;;;11.10;9.27;;;;;;;;;;5017563;28;20402;-83
2022/12/13 03:29:04;;;;;;;12.47;7.03;;;;;;;;;;5017271;28;20811;-83
2022/12/13 03:31:32;;;;;;;15.93;9.00;;;;;;;;;;4997711;28;20463;-83
2022/12/13 03:33:58;;;;;;;10.50;7.97;;;;;;;;;;4978232;28;20423;-82
2022/12/13 03:36:30;;;;;;;16.27;11.00;;;;;;;;;;5010752;28;20556;-82
2022/12/13 03:38:57;;;;;;;15.77;9.73;;;;;;;;;;4997809;28;20414;-83
2022/12/13 03:41:30;;;;;;;15.17;8.33;;;;;;;;;;4997139;28;20471;-83
2022/12/13 03:43:59;;;;;;;14.03;6.90;;;;;;;;;;5013004;28;20427;-84
2022/12/13 03:46:24;;;;;;;11.80;8.10;;;;;;;;;;4997486;28;20422;-83
2022/12/13 03:48:55;;;;;;;20.53;9.23;;;;;;;;;;4997286;28;20613;-83
2022/12/13 03:51:22;;;;;;;13.53;9.50;;;;;;;;;;4997506;28;20418;-84
2022/12/13 03:53:49;;;;;;;11.53;8.83;;;;;;;;;;4981213;28;20425;-83
2022/12/13 03:56:18;;;;;;;12.60;9.13;;;;;;;;;;4997321;28;20912;-83
2022/12/13 03:58:44;;;;;;;12.37;7.83;;;;;;;;;;4997159;28;20519;-83
2022/12/13 04:01:12;;;;;;;9.23;6.57;;;;;;;;;;5014743;28;20402;-84
2022/12/13 04:04:04;;;;;;;14.40;8.13;;;;;;;;;;4999869;28;20488;-83
2022/12/13 04:06:32;;;;;;;7.97;5.77;;;;;;;;;;4997147;28;20429;-82
2022/12/13 04:09:13;;;;;;;12.90;9.47;;;;;;;;;;4997057;28;20927;-83
2022/12/13 04:14:27;;;;;;;16.80;11.67;;;;;;;;;;5014785;28;20464;-83
2022/12/13 04:17:01;;;;;;;8.93;7.43;;;;;;;;;;4996990;28;20481;-83
2022/12/13 04:19:56;;;;;;;17.97;10.63;;;;;;;;;;5070552;28;20503;-83
2022/12/13 04:22:29;;;;;;;13.20;7.93;;;;;;;;;;5070502;28;21016;-83
2022/12/13 04:24:59;;;;;;;11.40;8.23;;;;;;;;;;5071518;28;20500;-82
2022/12/13 04:27:25;;;;;;;5.87;4.70;;;;;;;;;;5069294;28;20469;-83
2022/12/13 04:29:51;;;;;;;16.53;10.10;;;;;;;;;;5069103;28;20419;-82
2022/12/13 04:32:17;;;;;;;13.83;9.53;;;;;;;;;;5068660;28;20412;-82
2022/12/13 04:34:43;;;;;;;21.60;10.17;;;;;;;;;;5069024;28;20426;-82
2022/12/13 04:37:09;;;;;;;10.73;6.93;;;;;;;;;;5070402;28;20412;-82
2022/12/13 04:39:35;;;;;;;15.57;11.23;;;;;;;;;;5070265;28;20825;-82
2022/12/13 04:42:01;;;;;;;12.80;7.40;;;;;;;;;;5070165;28;20856;-82
2022/12/13 04:44:27;;;;;;;12.77;9.27;;;;;;;;;;5068706;28;20424;-82
2022/12/13 04:46:53;;;;;;;13.53;8.57;;;;;;;;;;5070032;28;20457;-82
2022/12/13 04:49:19;;;;;;;15.73;9.57;;;;;;;;;;5068490;28;20458;-82
2022/12/13 04:51:45;;;;;;;11.23;8.50;;;;;;;;;;5070005;28;20820;-83
2022/12/13 04:54:12;;;;;;;15.63;9.70;;;;;;;;;;5068564;28;20408;-82
2022/12/13 04:56:38;;;;;;;13.70;9.77;;;;;;;;;;5069986;28;20423;-82
2022/12/13 04:59:04;;;;;;;11.80;8.43;;;;;;;;;;5051904;28;20478;-82
2022/12/13 05:01:30;;;;;;;15.23;10.20;;;;;;;;;;5068500;28;20420;-82
2022/12/13 05:03:56;;;;;;;12.67;8.87;;;;;;;;;;5068097;28;20435;-82
2022/12/13 05:06:22;;;;;;;15.80;11.40;;;;;;;;;;5051995;28;20416;-82
2022/12/13 05:08:48;;;;;;;17.50;8.10;;;;;;;;;;5068937;28;20435;-81
2022/12/13 05:11:14;;;;;;;18.77;7.97;;;;;;;;;;5069145;28;20864;-82
2022/12/13 05:13:43;;;;;;;18.30;11.70;;;;;;;;;;5076240;28;20434;-82
2022/12/13 05:16:11;;;;;;;16.13;12.40;;;;;;;;;;5071386;28;20412;-82
2022/12/13 05:18:37;;;;;;;18.07;11.10;;;;;;;;;;5069062;28;20479;-82
2022/12/13 05:21:07;;;;;;;21.00;11.40;;;;;;;;;;5068147;28;20962;-83
2022/12/13 05:23:33;;;;;;;14.67;11.53;;;;;;;;;;5067915;28;20431;-82
2022/12/13 05:26:00;;;;;;;21.50;11.17;;;;;;;;;;5069050;28;20434;-82
2022/12/13 05:28:28;;;;;;;22.97;10.20;;;;;;;;;;5067696;28;20420;-81
2022/12/13 05:30:55;;;;;;;14.90;10.77;;;;;;;;;;5056719;28;20420;-82
2022/12/13 05:33:22;;;;;;;15.47;10.07;;;;;;;;;;5054100;28;20421;-82
2022/12/13 05:35:48;;;;;;;11.60;10.47;;;;;;;;;;5037930;28;20915;-82
2022/12/13 05:38:14;;;;;;;16.73;10.70;;;;;;;;;;5054295;28;20521;-82
2022/12/13 05:40:40;;;;;;;19.40;12.80;;;;;;;;;;5054379;28;20428;-82
2022/12/13 05:43:06;;;;;;;19.43;11.17;;;;;;;;;;5054332;28;20418;-82
2022/12/13 05:45:33;;;;;;;17.20;7.93;;;;;;;;;;5055524;28;20424;-82
2022/12/13 05:48:01;;;;;;;11.07;9.37;;;;;;;;;;5053968;28;20923;-83
2022/12/13 05:50:27;;;;;;;16.73;11.30;;;;;;;;;;5056136;28;20483;-83
2022/12/13 05:52:55;;;;;;;16.93;9.43;;;;;;;;;;5058062;28;20470;-84
2022/12/13 05:55:22;;;;;;;17.30;11.07;;;;;;;;;;5055439;28;20412;-84
2022/12/13 05:57:55;;;;;;;16.63;9.77;;;;;;;;;;5054013;28;20491;-82
2022/12/13 06:00:22;;;;;;;18.03;11.93;;;;;;;;;;5038188;28;20428;-82
2022/12/13 06:02:48;;;;;;;23.60;11.80;;;;;;;;;;5053536;28;20439;-83
2022/12/13 06:05:16;;;;;;;19.77;11.07;;;;;;;;;;5053876;28;20928;-82
2022/12/13 06:07:41;;;;;;;15.40;9.13;;;;;;;;;;5037072;28;20450;-83
2022/12/13 06:10:08;;;;;;;19.83;11.37;;;;;;;;;;5053739;28;20430;-82
2022/12/13 06:12:34;;;;;;;24.33;11.60;;;;;;;;;;5053772;28;20422;-83
2022/12/13 06:15:00;;;;;;;23.87;11.00;;;;;;;;;;5053646;28;20422;-83
2022/12/13 06:17:32;;;;;;;13.70;7.87;;;;;;;;;;5053136;28;20893;-83
2022/12/13 06:19:58;;;;;;;21.50;12.03;;;;;;;;;;5053637;28;20422;-83
2022/12/13 06:22:24;;;;;;;15.63;10.37;;;;;;;;;;5054836;28;20481;-84
2022/12/13 06:24:54;;;;;;;17.27;10.80;;;;;;;;;;5037076;28;20440;-83
2022/12/13 06:27:20;;;;;;;16.17;9.57;;;;;;;;;;5053418;28;20509;-82
2022/12/13 06:29:47;;;;;;;15.07;9.90;;;;;;;;;;5053450;28;20424;-83
2022/12/13 06:32:16;;;;;;;19.00;10.67;;;;;;;;;;5053083;28;20402;-83
2022/12/13 06:34:42;;;;;;;20.07;9.80;;;;;;;;;;5054230;28;20439;-83
2022/12/13 06:37:13;;;;;;;18.63;11.67;;;;;;;;;;5052864;28;20438;-83
2022/12/13 06:39:42;;;;;;;20.87;12.20;;;;;;;;;;5053155;28;20475;-83
2022/12/13 06:42:14;;;;;;;14.27;8.20;;;;;;;;;;5053438;28;20412;-83
2022/12/13 06:44:43;;;;;;;16.07;10.07;;;;;;;;;;5054504;28;20955;-82
2022/12/13 06:47:10;;;;;;;19.40;10.40;;;;;;;;;;5052600;28;20907;-82
2022/12/13 06:49:37;;;;;;;13.37;9.70;;;;;;;;;;5054295;28;20423;-81
2022/12/13 06:52:03;;;;;;;14.20;7.70;;;;;;;;;;5052982;28;20422;-82
2022/12/13 06:54:32;;;;;;;13.20;10.43;;;;;;;;;;5052850;28;20405;-82
2022/12/13 06:56:58;;;;;;;15.30;11.27;;;;;;;;;;5052830;28;20421;-82
2022/12/13 06:59:27;;;;;;;12.00;8.87;;;;;;;;;;5052549;28;20474;-83
2022/12/13 07:01:53;;;;;;;16.67;10.33;;;;;;;;;;5052337;28;20837;-82
2022/12/13 07:04:19;;;;;;;19.90;10.93;;;;;;;;;;5052686;28;20492;-83
2022/12/13 07:06:45;;;;;;;16.77;11.23;;;;;;;;;;5052729;28;20952;-83
2022/12/13 07:09:12;;;;;;;15.80;11.60;;;;;;;;;;5052612;28;20442;-84
2022/12/13 07:11:39;;;;;;;15.20;11.17;;;;;;;;;;5052682;28;20424;-84
2022/12/13 07:14:09;;;;;;;40.23;21.10;;;;;;;;;;5052793;28;20424;-84
2022/12/13 07:16:35;;;;;;;25.63;15.53;;;;;;;;;;5052652;28;20430;-83
2022/12/13 07:19:01;;;;;;;21.37;12.40;;;;;;;;;;5052281;28;20545;-83
2022/12/13 07:21:28;;;;;;;25.30;14.03;;;;;;;;;;5053029;28;20944;-82
2022/12/13 07:23:57;;;;;;;17.27;13.10;;;;;;;;;;5051979;28;20421;-83
2022/12/13 07:26:23;;;;;;;19.47;11.47;;;;;;;;;;5052263;28;20792;-81
2022/12/13 07:28:50;;;;;;;16.73;9.57;;;;;;;;;;5052411;28;20420;-82
2022/12/13 07:31:17;;;;;;;23.23;12.13;;;;;;;;;;5052320;28;20516;-81
2022/12/13 07:33:46;;;;;;;17.60;10.63;;;;;;;;;;5051931;28;20444;-82
2022/12/13 07:36:13;;;;;;;19.57;10.30;;;;;;;;;;5053491;28;20412;-82
2022/12/13 07:38:40;;;;;;;15.03;11.10;;;;;;;;;;5052050;28;20485;-82
2022/12/13 07:41:05;;;;;;;18.50;11.30;;;;;;;;;;5052155;28;20469;-82
2022/12/13 07:43:32;;;;;;;25.93;14.20;;;;;;;;;;5052159;28;20792;-82
2022/12/13 07:45:59;;;;;;;27.67;15.13;;;;;;;;;;5051937;28;20936;-82
2022/12/13 07:48:25;;;;;;;26.40;17.27;;;;;;;;;;5051486;28;20471;-82
2022/12/13 07:50:51;;;;;;;27.57;13.70;;;;;;;;;;5053117;28;20816;-82
2022/12/13 07:53:17;;;;;;;34.27;16.80;;;;;;;;;;5051289;28;20509;-81
2022/12/13 07:55:43;;;;;;;19.40;11.87;;;;;;;;;;5050831;28;20424;-81
2022/12/13 07:58:18;;;;;;;24.03;12.80;;;;;;;;;;5052497;28;20947;-81
2022/12/13 08:00:44;;;;;;;21.67;13.00;;;;;;;;;;5050609;28;20421;-83
2022/12/13 08:03:12;;;;;;;21.33;12.20;;;;;;;;;;5051617;28;20412;-83
2022/12/13 08:05:38;;;;;;;20.73;10.57;;;;;;;;;;5051893;28;20474;-83
2022/12/13 08:08:05;;;;;;;32.43;21.47;;;;;;;;;;5053196;28;20423;-81
2022/12/13 08:10:32;;;;;;;24.60;16.30;;;;;;;;;;5051706;28;20422;-82
2022/12/13 08:12:58;;;;;;;32.63;16.90;;;;;;;;;;5053152;28;20410;-82
2022/12/13 08:15:24;;;;;;;31.13;18.60;;;;;;;;;;5052788;28;20819;-83
2022/12/13 08:17:53;;;;;;;28.30;15.37;;;;;;;;;;5051971;28;20508;-82
2022/12/13 08:20:19;;;;;;;15.07;9.23;;;;;;;;;;5052852;28;20425;-82
2022/12/13 08:22:48;;;;;;;14.37;9.70;;;;;;;;;;5052654;28;21872;-83
2022/12/13 08:25:14;;;;;;;18.70;11.20;;;;;;;;;;5052614;28;20402;-83
2022/12/13 08:27:40;;;;;;;19.20;13.10;;;;;;;;;;5052499;28;21059;-83
2022/12/13 08:30:06;;;;;;;20.07;11.53;;;;;;;;;;5051316;28;20416;-83
2022/12/13 08:32:32;;;;;;;14.67;9.50;;;;;;;;;;5052310;28;20418;-83
2022/12/13 08:34:58;;;;;;;22.23;13.13;;;;;;;;;;5052877;28;20420;-83
2022/12/13 08:37:24;;;;;;;34.07;14.93;;;;;;;;;;5052724;28;20868;-82
2022/12/13 08:39:50;;;;;;;15.90;9.00;;;;;;;;;;5052843;28;20482;-84
2022/12/13 08:42:17;;;;;;;21.40;12.50;;;;;;;;;;5052856;28;20767;-81
2022/12/13 08:44:44;;;;;;;15.70;8.93;;;;;;;;;;5056571;28;20415;-82
2022/12/13 08:47:10;;;;;;;13.40;6.97;;;;;;;;;;5057821;28;20388;-82
2022/12/13 08:49:36;;;;;;;13.80;9.03;;;;;;;;;;5061208;28;20421;-82
2022/12/13 08:52:02;;;;;;;11.70;7.97;;;;;;;;;;5058197;28;20776;-83
2022/12/13 08:54:28;;;;;;;16.37;9.33;;;;;;;;;;5059170;28;20415;-82
2022/12/13 08:56:54;;;;;;;14.77;8.53;;;;;;;;;;5057555;28;20410;-82
2022/12/13 08:59:24;;;;;;;15.83;8.80;;;;;;;;;;5055833;28;20485;-83
2022/12/13 09:01:50;;;;;;;9.47;6.80;;;;;;;;;;5053064;28;20970;-85
2022/12/13 09:04:16;;;;;;;18.50;9.77;;;;;;;;;;5053831;28;20454;-83
2022/12/13 09:06:45;;;;;;;13.83;10.57;;;;;;;;;;5057251;28;20412;-82
2022/12/13 09:09:13;;;;;;;16.50;11.57;;;;;;;;;;5057874;28;20499;-85
2022/12/13 09:11:39;;;;;;;13.37;9.07;;;;;;;;;;5057201;28;20409;-82
2022/12/13 09:14:06;;;;;;;14.80;10.57;;;;;;;;;;5057002;28;20404;-80
2022/12/13 09:16:35;;;;;;;16.43;10.13;;;;;;;;;;5056390;28;20441;-81
2022/12/13 09:19:01;;;;;;;17.70;9.73;;;;;;;;;;5055915;28;20570;-79
2022/12/13 09:21:27;;;;;;;21.83;11.73;;;;;;;;;;5056250;28;20416;-79
2022/12/13 09:23:53;;;;;;;17.90;10.70;;;;;;;;;;5056149;28;20418;-79
2022/12/13 09:26:19;;;;;;;12.60;8.50;;;;;;;;;;5056070;28;20485;-78
2022/12/13 09:28:45;;;;;;;19.63;11.60;;;;;;;;;;5056123;28;20419;-78
2022/12/13 09:31:16;;;;;;;14.47;8.73;;;;;;;;;;5055908;28;20410;-78
2022/12/13 09:33:42;;;;;;;20.07;11.93;;;;;;;;;;5055465;28;20432;-78
2022/12/13 09:36:10;;;;;;;18.77;10.47;;;;;;;;;;5055767;28;20821;-78
2022/12/13 09:38:36;;;;;;;15.20;9.13;;;;;;;;;;5055638;28;20485;-79
2022/12/13 09:41:15;;;;;;;18.53;9.40;;;;;;;;;;5055713;28;20410;-79
2022/12/13 09:43:43;;;;;;;13.30;9.20;;;;;;;;;;5055659;28;20880;-79
2022/12/13 09:46:14;;;;;;;20.37;10.67;;;;;;;;;;5055577;28;20403;-79
2022/12/13 09:48:41;;;;;;;23.70;10.67;;;;;;;;;;5055138;28;20408;-79
2022/12/13 09:51:11;;;;;;;18.53;10.57;;;;;;;;;;5055491;28;20513;-79
2022/12/13 09:53:39;;;;;;;17.80;10.20;;;;;;;;;;5055385;28;20400;-80
2022/12/13 09:56:06;;;;;;;12.53;8.20;;;;;;;;;;5054124;28;20429;-79
2022/12/13 09:58:33;;;;;;;17.30;10.00;;;;;;;;;;5055210;28;20510;-79
2022/12/13 10:00:59;;;;;;;18.53;10.70;;;;;;;;;;5055262;28;20884;-79
2022/12/13 10:03:25;;;;;;;23.00;13.43;;;;;;;;;;5053642;28;20416;-79
2022/12/13 10:06:05;;;;;;;21.13;12.33;;;;;;;;;;5055248;28;20781;-79
2022/12/13 10:08:35;;;;;;;22.80;11.77;;;;;;;;;;5053933;28;20418;-79
2022/12/13 10:11:00;;;;;;;16.53;10.87;;;;;;;;;;5054123;28;20423;-80
2022/12/13 10:13:35;;;;;;;20.27;11.23;;;;;;;;;;5054171;28;20509;-79
2022/12/13 10:16:04;;;;;;;20.80;12.30;;;;;;;;;;5053722;28;20416;-80
2022/12/13 10:18:34;;;;;;;27.40;12.17;;;;;;;;;;5054498;28;20482;-79
2022/12/13 10:21:02;;;;;;;21.53;10.90;;;;;;;;;;5055453;28;20423;-79
2022/12/13 10:23:28;;;;;;;15.13;8.63;;;;;;;;;;5059027;28;20429;-87
2022/12/13 10:25:55;;;;;;;18.00;11.33;;;;;;;;;;5061224;28;20413;-89
2022/12/13 10:28:28;;;;;;;22.53;11.33;;;;;;;;;;5057871;28;20901;-90
2022/12/13 10:30:55;;;;;;;19.53;10.90;;;;;;;;;;5057325;28;20405;-90
2022/12/13 10:33:25;;;;;;;19.73;10.90;;;;;;;;;;5054867;28;20429;-92
2022/12/13 10:36:10;;;;;;;20.70;12.00;;;;;;;;;;5055594;28;20407;-85
2022/12/13 10:38:37;;;;;;;24.23;11.00;;;;;;;;;;5053554;28;20472;-89
2022/12/13 10:41:03;;;;;;;15.27;9.17;;;;;;;;;;5053934;28;20420;-88
2022/12/13 10:43:30;;;;;;;17.97;11.60;;;;;;;;;;5055203;28;20421;-89
2022/12/13 10:46:01;;;;;;;19.17;10.93;;;;;;;;;;5058617;28;20408;-89
2022/12/13 10:48:30;;;;;;;19.17;11.40;;;;;;;;;;5052943;28;20454;-89
2022/12/13 10:50:57;;;;;;;16.77;8.67;;;;;;;;;;5053694;28;20759;-85
2022/12/13 10:53:26;;;;;;;14.63;9.70;;;;;;;;;;5054289;28;20408;-89
2022/12/13 10:55:56;;;;;;;17.70;7.80;;;;;;;;;;5053959;28;20428;-91
2022/12/13 10:58:22;;;;;;;17.73;9.97;;;;;;;;;;5054170;28;20468;-88
2022/12/13 11:00:55;;;;;;;19.20;9.40;;;;;;;;;;5054566;28;20516;-91
2022/12/13 11:03:31;;;;;;;25.03;10.70;;;;;;;;;;5054437;28;20416;-94
2022/12/13 11:06:05;;;;;;;15.80;9.20;;;;;;;;;;5055111;28;20787;-92
2022/12/13 11:08:31;;;;;;;15.30;9.80;;;;;;;;;;5055593;28;20460;-90
2022/12/13 11:10:58;;;;;;;19.70;9.20;;;;;;;;;;5056623;28;20425;-91
2022/12/13 11:16:00;;;;;;;19.63;9.97;;;;;;;;;;1840315;22;21129;-90
2022/12/13 11:18:29;;;;;;;18.03;9.80;;;;;;;;;;5024938;28;20488;-94
2022/12/13 11:21:02;;;;;;;21.40;10.30;;;;;;;;;;5016635;28;20422;-92
2022/12/13 11:23:31;;;;;;;19.97;9.33;;;;;;;;;;5016994;28;20415;-87
2022/12/13 11:25:59;;;;;;;18.67;10.60;;;;;;;;;;5015689;28;20417;-86
2022/12/13 11:28:32;;;;;;;15.30;9.93;;;;;;;;;;5015722;28;20414;-89
2022/12/13 11:31:06;;;;;;;18.67;10.10;;;;;;;;;;5016075;28;20420;-89
2022/12/13 11:33:37;;;;;;;18.73;11.40;;;;;;;;;;5016095;28;20929;-89
2022/12/13 11:36:13;;;;;;;22.97;9.97;;;;;;;;;;5015012;28;20424;-87
2022/12/13 11:38:59;;;;;;;15.50;9.80;;;;;;;;;;5015904;28;20456;-88
2022/12/13 11:41:28;;;;;;;22.90;11.00;;;;;;;;;;5015846;28;20426;-85
2022/12/13 11:44:07;;;;;;;16.53;10.83;;;;;;;;;;5014579;28;20410;-85
2022/12/13 11:46:45;;;;;;;19.50;11.33;;;;;;;;;;5019890;28;20886;-86
2022/12/13 11:49:19;;;;;;;16.13;9.60;;;;;;;;;;5015107;28;20421;-88
2022/12/13 11:51:57;;;;;;;16.67;8.87;;;;;;;;;;5025737;28;20803;-85
2022/12/13 11:54:34;;;;;;;20.27;12.03;;;;;;;;;;5011771;28;20436;-86
2022/12/13 11:57:04;;;;;;;15.67;10.30;;;;;;;;;;5015339;28;20405;-87
2022/12/13 11:59:33;;;;;;;18.83;12.43;;;;;;;;;;5015455;28;20892;-86
2022/12/13 12:02:15;;;;;;;20.50;11.13;;;;;;;;;;5014978;28;20913;-85
2022/12/13 12:04:52;;;;;;;16.27;10.57;;;;;;;;;;5014891;28;20413;-85
2022/12/13 12:07:29;;;;;;;21.37;10.73;;;;;;;;;;5014777;28;20412;-86
2022/12/13 12:10:04;;;;;;;17.67;10.00;;;;;;;;;;5014940;28;20408;-87
2022/12/13 12:12:32;;;;;;;18.10;11.60;;;;;;;;;;5032638;28;20419;-86
2022/12/13 12:14:58;;;;;;;13.07;7.10;;;;;;;;;;5014915;28;20441;-87
2022/12/13 12:17:25;;;;;;;21.00;9.93;;;;;;;;;;5030597;28;20499;-86
2022/12/13 12:19:55;;;;;;;22.20;12.20;;;;;;;;;;5031149;28;20469;-87
2022/12/13 12:22:41;;;;;;;16.57;10.30;;;;;;;;;;5014796;28;20500;-84
2022/12/13 12:25:26;;;;;;;16.13;9.03;;;;;;;;;;5014998;28;20804;-84
2022/12/13 12:28:16;;;;;;;20.77;10.23;;;;;;;;;;5031033;28;20420;-84
2022/12/13 12:30:50;;;;;;;20.27;11.00;;;;;;;;;;5016088;28;20417;-89
2022/12/13 12:33:21;;;;;;;17.50;9.63;;;;;;;;;;5034568;28;20432;-88
2022/12/13 12:36:06;;;;;;;17.53;9.87;;;;;;;;;;5026830;28;20448;-90
2022/12/13 12:38:55;;;;;;;14.87;9.37;;;;;;;;;;5033299;28;20485;-86
2022/12/13 12:41:28;;;;;;;15.00;10.20;;;;;;;;;;5034928;28;20416;-85
2022/12/13 12:44:00;;;;;;;16.90;11.43;;;;;;;;;;5018536;28;20936;-84
2022/12/13 12:46:49;;;;;;;15.67;10.27;;;;;;;;;;5019477;28;20413;-85
2022/12/13 12:49:34;;;;;;;16.90;10.70;;;;;;;;;;5019969;28;20415;-86
2022/12/13 12:52:07;;;;;;;22.50;11.80;;;;;;;;;;5018358;28;20424;-84
2022/12/13 12:54:42;;;;;;;19.63;11.10;;;;;;;;;;5018571;28;20421;-87
2022/12/13 12:57:17;;;;;;;20.17;11.67;;;;;;;;;;5018301;28;20785;-86
2022/12/13 12:59:53;;;;;;;19.70;11.60;;;;;;;;;;5017739;28;20475;-84
2022/12/13 13:02:23;;;;;;;18.40;10.60;;;;;;;;;;5017734;28;20432;-84
2022/12/13 13:04:52;;;;;;;22.50;10.57;;;;;;;;;;5017832;28;20412;-83
2022/12/13 13:07:31;;;;;;;25.77;12.33;;;;;;;;;;5035895;28;20422;-84
2022/12/13 13:09:58;;;;;;;17.63;9.37;;;;;;;;;;5019282;28;20420;-85
2022/12/13 13:12:25;;;;;;;11.87;8.63;;;;;;;;;;5019012;28;20421;-85
2022/12/13 13:15:16;;;;;;;17.70;11.63;;;;;;;;;;5019620;28;20412;-85
2022/12/13 13:17:48;;;;;;;21.27;11.00;;;;;;;;;;5031507;28;20541;-84
2022/12/13 13:20:28;;;;;;;17.00;11.40;;;;;;;;;;5019213;28;20421;-86
2022/12/13 13:22:57;;;;;;;15.97;10.00;;;;;;;;;;5019340;28;20412;-87
2022/12/13 13:25:25;;;;;;;16.50;9.60;;;;;;;;;;5019116;28;20512;-87
2022/12/13 13:27:59;;;;;;;24.97;12.27;;;;;;;;;;5036665;28;20417;-86
2022/12/13 13:30:26;;;;;;;18.53;10.60;;;;;;;;;;5019607;28;20397;-87
2022/12/13 13:32:54;;;;;;;17.27;9.87;;;;;;;;;;5035934;28;20433;-85
2022/12/13 13:35:36;;;;;;;20.13;12.70;;;;;;;;;;5035965;28;20413;-86
2022/12/13 13:38:03;;;;;;;14.07;9.07;;;;;;;;;;5036971;28;20450;-84
2022/12/13 13:40:37;;;;;;;21.70;10.73;;;;;;;;;;5019043;28;20433;-84
2022/12/13 13:43:07;;;;;;;13.87;9.00;;;;;;;;;;5017958;28;20428;-84
2022/12/13 13:45:49;;;;;;;18.23;10.27;;;;;;;;;;5018400;28;20527;-85
2022/12/13 13:48:18;;;;;;;19.07;10.93;;;;;;;;;;5035969;28;21003;-84
2022/12/13 13:51:08;;;;;;;20.03;9.60;;;;;;;;;;5017610;28;20414;-84
2022/12/13 13:54:10;;;;;;;26.77;11.67;;;;;;;;;;5018204;28;20941;-84
2022/12/13 13:56:54;;;;;;;20.07;11.10;;;;;;;;;;4975713;28;20490;-85
2022/12/13 13:59:40;;;;;;;16.50;10.37;;;;;;;;;;5030829;28;20518;-84
2022/12/13 14:02:15;;;;;;;18.60;11.00;;;;;;;;;;5017286;28;20441;-85
2022/12/13 14:05:00;;;;;;;24.93;12.60;;;;;;;;;;5017466;28;20449;-85
2022/12/13 14:07:44;;;;;;;24.73;11.20;;;;;;;;;;5035365;28;20901;-84
2022/12/13 14:10:21;;;;;;;20.70;11.77;;;;;;;;;;5017528;28;20401;-84
2022/12/13 14:13:06;;;;;;;17.73;9.93;;;;;;;;;;5035189;28;20410;-84
2022/12/13 14:15:54;;;;;;;14.13;10.33;;;;;;;;;;5017359;28;20759;-85
2022/12/13 14:18:39;;;;;;;26.17;12.70;;;;;;;;;;5017276;28;20521;-84
2022/12/13 14:21:15;;;;;;;20.83;11.13;;;;;;;;;;5034826;28;20413;-84
2022/12/13 14:23:41;;;;;;;24.30;12.60;;;;;;;;;;5017261;28;20421;-85
2022/12/13 14:26:17;;;;;;;17.70;10.63;;;;;;;;;;5034694;28;20952;-84
2022/12/13 14:28:47;;;;;;;23.43;12.83;;;;;;;;;;5017182;28;20800;-84
2022/12/13 14:31:16;;;;;;;14.30;9.17;;;;;;;;;;5034415;28;20429;-84
2022/12/13 14:33:45;;;;;;;19.30;9.67;;;;;;;;;;5016911;28;20457;-83
2022/12/13 14:36:25;;;;;;;16.70;9.53;;;;;;;;;;5017184;28;20432;-85
2022/12/13 14:38:59;;;;;;;22.43;11.77;;;;;;;;;;5016709;28;20522;-84
2022/12/13 14:41:25;;;;;;;21.67;11.97;;;;;;;;;;5034732;28;20452;-85
2022/12/13 14:43:51;;;;;;;21.80;11.33;;;;;;;;;;5034557;28;20433;-84
2022/12/13 14:46:17;;;;;;;21.77;11.33;;;;;;;;;;5036371;28;20416;-85
2022/12/13 14:48:45;;;;;;;17.37;9.70;;;;;;;;;;5034952;28;20404;-85